sensor_id;sensor_type;location;lat;lon;timestamp;P1;durP1;ratioP1;P2;durP2;ratioP2
34236;SDS011;20501;45.956;13.632;2022-09-09T00:06:43;5.60;;;2.08;;
34236;SDS011;20501;45.956;13.632;2022-09-09T00:09:18;2.10;;;1.77;;
34236;SDS011;20501;45.956;13.632;2022-09-09T00:11:53;4.78;;;2.28;;
34236;SDS011;20501;45.956;13.632;2022-09-09T00:16:56;3.33;;;1.80;;
34236;SDS011;20501;45.956;13.632;2022-09-09T00:19:39;3.95;;;2.13;;
34236;SDS011;20501;45.956;13.632;2022-09-09T00:29:58;3.97;;;2.55;;
34236;SDS011;20501;45.956;13.632;2022-09-09T00:32:29;6.15;;;1.88;;
34236;SDS011;20501;45.956;13.632;2022-09-09T00:35:02;6.07;;;2.13;;
34236;SDS011;20501;45.956;13.632;2022-09-09T00:37:37;5.30;;;1.90;;
34236;SDS011;20501;45.956;13.632;2022-09-09T00:40:07;3.33;;;1.90;;
34236;SDS011;20501;45.956;13.632;2022-09-09T00:42:43;6.32;;;2.08;;
34236;SDS011;20501;45.956;13.632;2022-09-09T00:48:07;6.45;;;2.15;;
34236;SDS011;20501;45.956;13.632;2022-09-09T00:53:30;1.95;;;1.75;;
34236;SDS011;20501;45.956;13.632;2022-09-09T00:56:20;5.28;;;2.17;;
34236;SDS011;20501;45.956;13.632;2022-09-09T00:58:55;4.28;;;1.73;;
34236;SDS011;20501;45.956;13.632;2022-09-09T01:01:35;4.90;;;1.67;;
34236;SDS011;20501;45.956;13.632;2022-09-09T01:04:01;7.18;;;2.75;;
34236;SDS011;20501;45.956;13.632;2022-09-09T01:06:34;6.65;;;1.95;;
34236;SDS011;20501;45.956;13.632;2022-09-09T01:17:24;6.07;;;1.83;;
34236;SDS011;20501;45.956;13.632;2022-09-09T01:27:44;8.43;;;2.72;;
34236;SDS011;20501;45.956;13.632;2022-09-09T01:30:13;6.15;;;2.15;;
34236;SDS011;20501;45.956;13.632;2022-09-09T01:38:06;2.28;;;1.83;;
34236;SDS011;20501;45.956;13.632;2022-09-09T01:40:32;3.55;;;1.88;;
34236;SDS011;20501;45.956;13.632;2022-09-09T01:42:58;4.93;;;2.75;;
34236;SDS011;20501;45.956;13.632;2022-09-09T01:45:23;4.28;;;2.13;;
34236;SDS011;20501;45.956;13.632;2022-09-09T01:47:50;3.22;;;1.92;;
34236;SDS011;20501;45.956;13.632;2022-09-09T01:50:17;2.40;;;1.98;;
34236;SDS011;20501;45.956;13.632;2022-09-09T01:52:44;4.15;;;2.00;;
34236;SDS011;20501;45.956;13.632;2022-09-09T01:55:12;5.63;;;1.85;;
34236;SDS011;20501;45.956;13.632;2022-09-09T02:00:13;3.88;;;2.10;;
34236;SDS011;20501;45.956;13.632;2022-09-09T02:07:52;3.10;;;1.80;;
34236;SDS011;20501;45.956;13.632;2022-09-09T02:13:10;4.25;;;2.53;;
34236;SDS011;20501;45.956;13.632;2022-09-09T02:15:48;6.07;;;2.22;;
34236;SDS011;20501;45.956;13.632;2022-09-09T02:18:40;4.47;;;2.53;;
34236;SDS011;20501;45.956;13.632;2022-09-09T02:21:18;7.15;;;2.08;;
34236;SDS011;20501;45.956;13.632;2022-09-09T02:23:44;3.10;;;2.23;;
34236;SDS011;20501;45.956;13.632;2022-09-09T02:26:13;4.93;;;2.30;;
34236;SDS011;20501;45.956;13.632;2022-09-09T02:28:45;3.60;;;2.35;;
34236;SDS011;20501;45.956;13.632;2022-09-09T02:31:12;2.15;;;1.70;;
34236;SDS011;20501;45.956;13.632;2022-09-09T02:33:43;5.53;;;2.35;;
34236;SDS011;20501;45.956;13.632;2022-09-09T02:36:12;4.10;;;2.10;;
34236;SDS011;20501;45.956;13.632;2022-09-09T02:38:42;3.75;;;2.08;;
34236;SDS011;20501;45.956;13.632;2022-09-09T02:41:15;3.72;;;2.25;;
34236;SDS011;20501;45.956;13.632;2022-09-09T02:43:43;5.15;;;2.00;;
34236;SDS011;20501;45.956;13.632;2022-09-09T02:46:20;4.90;;;2.33;;
34236;SDS011;20501;45.956;13.632;2022-09-09T02:49:04;5.50;;;2.40;;
34236;SDS011;20501;45.956;13.632;2022-09-09T02:52:17;7.55;;;2.42;;
34236;SDS011;20501;45.956;13.632;2022-09-09T02:56:49;4.65;;;2.50;;
34236;SDS011;20501;45.956;13.632;2022-09-09T02:59:19;4.32;;;2.40;;
34236;SDS011;20501;45.956;13.632;2022-09-09T03:04:12;3.92;;;2.60;;
34236;SDS011;20501;45.956;13.632;2022-09-09T03:06:37;4.70;;;2.75;;
34236;SDS011;20501;45.956;13.632;2022-09-09T03:09:03;5.88;;;2.78;;
34236;SDS011;20501;45.956;13.632;2022-09-09T03:11:30;8.60;;;2.38;;
34236;SDS011;20501;45.956;13.632;2022-09-09T03:13:55;9.85;;;2.80;;
34236;SDS011;20501;45.956;13.632;2022-09-09T03:16:23;4.00;;;2.45;;
34236;SDS011;20501;45.956;13.632;2022-09-09T03:18:49;4.40;;;2.60;;
34236;SDS011;20501;45.956;13.632;2022-09-09T03:21:14;3.03;;;2.03;;
34236;SDS011;20501;45.956;13.632;2022-09-09T03:23:40;6.57;;;2.80;;
34236;SDS011;20501;45.956;13.632;2022-09-09T03:26:06;7.28;;;2.58;;
34236;SDS011;20501;45.956;13.632;2022-09-09T03:28:31;3.38;;;2.83;;
34236;SDS011;20501;45.956;13.632;2022-09-09T03:31:02;6.10;;;2.40;;
34236;SDS011;20501;45.956;13.632;2022-09-09T03:33:29;4.25;;;2.72;;
34236;SDS011;20501;45.956;13.632;2022-09-09T03:35:55;4.13;;;2.78;;
34236;SDS011;20501;45.956;13.632;2022-09-09T03:38:22;3.63;;;2.75;;
34236;SDS011;20501;45.956;13.632;2022-09-09T03:40:51;7.60;;;2.50;;
34236;SDS011;20501;45.956;13.632;2022-09-09T03:43:22;3.58;;;2.67;;
34236;SDS011;20501;45.956;13.632;2022-09-09T03:45:48;7.45;;;2.63;;
34236;SDS011;20501;45.956;13.632;2022-09-09T03:48:14;7.78;;;2.80;;
34236;SDS011;20501;45.956;13.632;2022-09-09T03:50:44;4.57;;;2.83;;
34236;SDS011;20501;45.956;13.632;2022-09-09T03:53:14;6.63;;;2.22;;
34236;SDS011;20501;45.956;13.632;2022-09-09T03:58:10;4.47;;;2.38;;
34236;SDS011;20501;45.956;13.632;2022-09-09T04:00:36;8.07;;;3.20;;
34236;SDS011;20501;45.956;13.632;2022-09-09T04:03:02;7.28;;;2.92;;
34236;SDS011;20501;45.956;13.632;2022-09-09T04:05:27;3.80;;;2.63;;
34236;SDS011;20501;45.956;13.632;2022-09-09T04:07:52;4.50;;;2.63;;
34236;SDS011;20501;45.956;13.632;2022-09-09T04:10:19;4.83;;;2.67;;
34236;SDS011;20501;45.956;13.632;2022-09-09T04:12:46;3.33;;;2.60;;
34236;SDS011;20501;45.956;13.632;2022-09-09T04:15:11;7.70;;;2.55;;
34236;SDS011;20501;45.956;13.632;2022-09-09T04:17:36;3.40;;;2.45;;
34236;SDS011;20501;45.956;13.632;2022-09-09T04:20:02;4.28;;;2.70;;
34236;SDS011;20501;45.956;13.632;2022-09-09T04:22:27;8.95;;;2.70;;
34236;SDS011;20501;45.956;13.632;2022-09-09T04:24:53;6.45;;;3.78;;
34236;SDS011;20501;45.956;13.632;2022-09-09T04:27:18;4.57;;;3.13;;
34236;SDS011;20501;45.956;13.632;2022-09-09T04:29:44;7.15;;;2.70;;
34236;SDS011;20501;45.956;13.632;2022-09-09T04:32:09;5.55;;;3.03;;
34236;SDS011;20501;45.956;13.632;2022-09-09T04:34:35;5.25;;;2.50;;
34236;SDS011;20501;45.956;13.632;2022-09-09T04:37:00;6.68;;;3.60;;
34236;SDS011;20501;45.956;13.632;2022-09-09T04:39:26;4.45;;;2.67;;
34236;SDS011;20501;45.956;13.632;2022-09-09T04:41:51;4.53;;;2.80;;
34236;SDS011;20501;45.956;13.632;2022-09-09T04:44:16;7.97;;;3.30;;
34236;SDS011;20501;45.956;13.632;2022-09-09T04:46:42;6.03;;;3.03;;
34236;SDS011;20501;45.956;13.632;2022-09-09T04:49:08;6.28;;;2.80;;
34236;SDS011;20501;45.956;13.632;2022-09-09T04:51:33;5.45;;;2.90;;
34236;SDS011;20501;45.956;13.632;2022-09-09T04:53:58;3.47;;;2.88;;
34236;SDS011;20501;45.956;13.632;2022-09-09T04:56:24;11.13;;;2.80;;
34236;SDS011;20501;45.956;13.632;2022-09-09T04:58:51;4.13;;;2.97;;
34236;SDS011;20501;45.956;13.632;2022-09-09T05:01:18;11.38;;;3.40;;
34236;SDS011;20501;45.956;13.632;2022-09-09T05:03:46;5.30;;;2.67;;
34236;SDS011;20501;45.956;13.632;2022-09-09T05:06:13;3.42;;;2.63;;
34236;SDS011;20501;45.956;13.632;2022-09-09T05:08:41;5.90;;;3.70;;
34236;SDS011;20501;45.956;13.632;2022-09-09T05:11:14;4.78;;;2.72;;
34236;SDS011;20501;45.956;13.632;2022-09-09T05:13:41;4.57;;;3.08;;
34236;SDS011;20501;45.956;13.632;2022-09-09T05:16:06;7.30;;;3.35;;
34236;SDS011;20501;45.956;13.632;2022-09-09T05:18:32;8.05;;;3.15;;
34236;SDS011;20501;45.956;13.632;2022-09-09T05:21:00;4.80;;;2.95;;
34236;SDS011;20501;45.956;13.632;2022-09-09T05:23:26;4.55;;;2.90;;
34236;SDS011;20501;45.956;13.632;2022-09-09T05:25:55;4.65;;;3.40;;
34236;SDS011;20501;45.956;13.632;2022-09-09T05:28:21;13.70;;;3.55;;
34236;SDS011;20501;45.956;13.632;2022-09-09T05:30:54;5.15;;;2.85;;
34236;SDS011;20501;45.956;13.632;2022-09-09T05:33:24;4.47;;;3.20;;
34236;SDS011;20501;45.956;13.632;2022-09-09T05:38:29;3.97;;;2.83;;
34236;SDS011;20501;45.956;13.632;2022-09-09T05:40:55;6.05;;;3.90;;
34236;SDS011;20501;45.956;13.632;2022-09-09T05:43:24;9.25;;;3.70;;
34236;SDS011;20501;45.956;13.632;2022-09-09T05:45:59;3.33;;;2.72;;
34236;SDS011;20501;45.956;13.632;2022-09-09T05:50:55;8.70;;;4.57;;
34236;SDS011;20501;45.956;13.632;2022-09-09T05:53:21;7.13;;;3.95;;
34236;SDS011;20501;45.956;13.632;2022-09-09T05:55:47;7.95;;;4.05;;
34236;SDS011;20501;45.956;13.632;2022-09-09T05:58:13;9.85;;;4.10;;
34236;SDS011;20501;45.956;13.632;2022-09-09T06:00:40;4.40;;;3.10;;
34236;SDS011;20501;45.956;13.632;2022-09-09T06:03:05;7.20;;;4.40;;
34236;SDS011;20501;45.956;13.632;2022-09-09T06:05:31;6.80;;;4.50;;
34236;SDS011;20501;45.956;13.632;2022-09-09T06:07:56;6.85;;;4.10;;
34236;SDS011;20501;45.956;13.632;2022-09-09T06:10:21;6.82;;;3.97;;
34236;SDS011;20501;45.956;13.632;2022-09-09T06:12:47;6.43;;;3.30;;
34236;SDS011;20501;45.956;13.632;2022-09-09T06:15:13;8.30;;;4.47;;
34236;SDS011;20501;45.956;13.632;2022-09-09T06:17:38;13.02;;;4.90;;
34236;SDS011;20501;45.956;13.632;2022-09-09T06:20:04;9.25;;;3.60;;
34236;SDS011;20501;45.956;13.632;2022-09-09T06:22:30;11.90;;;4.25;;
34236;SDS011;20501;45.956;13.632;2022-09-09T06:24:56;9.05;;;3.85;;
34236;SDS011;20501;45.956;13.632;2022-09-09T06:27:21;9.70;;;3.97;;
34236;SDS011;20501;45.956;13.632;2022-09-09T06:29:46;5.35;;;3.45;;
34236;SDS011;20501;45.956;13.632;2022-09-09T06:32:13;7.80;;;4.03;;
34236;SDS011;20501;45.956;13.632;2022-09-09T06:34:38;6.90;;;3.35;;
34236;SDS011;20501;45.956;13.632;2022-09-09T06:37:04;5.60;;;3.60;;
34236;SDS011;20501;45.956;13.632;2022-09-09T06:39:31;9.65;;;3.97;;
34236;SDS011;20501;45.956;13.632;2022-09-09T06:41:56;12.70;;;4.32;;
34236;SDS011;20501;45.956;13.632;2022-09-09T06:46:50;8.02;;;4.30;;
34236;SDS011;20501;45.956;13.632;2022-09-09T06:49:16;6.55;;;3.92;;
34236;SDS011;20501;45.956;13.632;2022-09-09T06:51:41;7.50;;;4.00;;
34236;SDS011;20501;45.956;13.632;2022-09-09T06:54:08;10.13;;;4.93;;
34236;SDS011;20501;45.956;13.632;2022-09-09T06:56:35;8.35;;;3.90;;
34236;SDS011;20501;45.956;13.632;2022-09-09T06:59:05;5.63;;;3.75;;
34236;SDS011;20501;45.956;13.632;2022-09-09T07:01:34;6.72;;;3.97;;
34236;SDS011;20501;45.956;13.632;2022-09-09T07:04:02;8.15;;;3.85;;
34236;SDS011;20501;45.956;13.632;2022-09-09T07:06:36;8.55;;;3.95;;
34236;SDS011;20501;45.956;13.632;2022-09-09T07:09:04;7.35;;;3.80;;
34236;SDS011;20501;45.956;13.632;2022-09-09T07:11:33;8.07;;;3.38;;
34236;SDS011;20501;45.956;13.632;2022-09-09T07:14:08;8.65;;;3.72;;
34236;SDS011;20501;45.956;13.632;2022-09-09T07:16:38;5.30;;;3.38;;
34236;SDS011;20501;45.956;13.632;2022-09-09T07:19:07;5.47;;;3.70;;
34236;SDS011;20501;45.956;13.632;2022-09-09T07:21:33;5.57;;;3.80;;
34236;SDS011;20501;45.956;13.632;2022-09-09T07:23:59;6.28;;;3.63;;
34236;SDS011;20501;45.956;13.632;2022-09-09T07:26:26;6.80;;;3.75;;
34236;SDS011;20501;45.956;13.632;2022-09-09T07:28:53;9.27;;;4.05;;
34236;SDS011;20501;45.956;13.632;2022-09-09T07:31:25;4.60;;;3.45;;
34236;SDS011;20501;45.956;13.632;2022-09-09T07:33:52;7.72;;;3.60;;
34236;SDS011;20501;45.956;13.632;2022-09-09T07:36:20;8.18;;;4.10;;
34236;SDS011;20501;45.956;13.632;2022-09-09T07:38:57;6.60;;;3.92;;
34236;SDS011;20501;45.956;13.632;2022-09-09T07:41:35;7.13;;;3.75;;
34236;SDS011;20501;45.956;13.632;2022-09-09T07:44:12;8.90;;;4.10;;
34236;SDS011;20501;45.956;13.632;2022-09-09T07:46:40;6.47;;;4.25;;
34236;SDS011;20501;45.956;13.632;2022-09-09T07:49:06;5.25;;;3.03;;
34236;SDS011;20501;45.956;13.632;2022-09-09T07:51:37;14.70;;;5.43;;
34236;SDS011;20501;45.956;13.632;2022-09-09T07:54:06;5.60;;;4.20;;
34236;SDS011;20501;45.956;13.632;2022-09-09T07:56:34;7.53;;;3.65;;
34236;SDS011;20501;45.956;13.632;2022-09-09T07:59:01;8.25;;;4.93;;
34236;SDS011;20501;45.956;13.632;2022-09-09T08:01:33;13.07;;;4.47;;
34236;SDS011;20501;45.956;13.632;2022-09-09T08:04:06;8.98;;;4.72;;
34236;SDS011;20501;45.956;13.632;2022-09-09T08:06:37;34.15;;;8.32;;
34236;SDS011;20501;45.956;13.632;2022-09-09T08:09:04;5.68;;;3.90;;
34236;SDS011;20501;45.956;13.632;2022-09-09T08:11:30;8.18;;;4.28;;
34236;SDS011;20501;45.956;13.632;2022-09-09T08:16:24;5.00;;;3.65;;
34236;SDS011;20501;45.956;13.632;2022-09-09T08:19:01;7.18;;;4.25;;
34236;SDS011;20501;45.956;13.632;2022-09-09T08:21:29;6.53;;;3.97;;
34236;SDS011;20501;45.956;13.632;2022-09-09T08:23:57;8.57;;;4.15;;
34236;SDS011;20501;45.956;13.632;2022-09-09T08:26:31;6.57;;;3.83;;
34236;SDS011;20501;45.956;13.632;2022-09-09T08:29:00;8.13;;;4.68;;
34236;SDS011;20501;45.956;13.632;2022-09-09T08:31:33;6.07;;;3.92;;
34236;SDS011;20501;45.956;13.632;2022-09-09T08:34:01;9.82;;;4.90;;
34236;SDS011;20501;45.956;13.632;2022-09-09T08:36:30;9.38;;;4.90;;
34236;SDS011;20501;45.956;13.632;2022-09-09T08:39:02;8.65;;;5.00;;
34236;SDS011;20501;45.956;13.632;2022-09-09T08:47:35;6.50;;;4.05;;
34236;SDS011;20501;45.956;13.632;2022-09-09T08:57:51;10.95;;;5.22;;
34236;SDS011;20501;45.956;13.632;2022-09-09T09:00:19;16.20;;;6.18;;
34236;SDS011;20501;45.956;13.632;2022-09-09T09:05:31;5.50;;;4.03;;
34236;SDS011;20501;45.956;13.632;2022-09-09T09:08:03;9.43;;;4.95;;
34236;SDS011;20501;45.956;13.632;2022-09-09T09:13:15;7.75;;;4.60;;
34236;SDS011;20501;45.956;13.632;2022-09-09T09:15:58;9.30;;;4.65;;
34236;SDS011;20501;45.956;13.632;2022-09-09T09:18:31;8.85;;;4.13;;
34236;SDS011;20501;45.956;13.632;2022-09-09T09:21:59;7.93;;;3.92;;
34236;SDS011;20501;45.956;13.632;2022-09-09T09:24:03;9.13;;;4.43;;
34236;SDS011;20501;45.956;13.632;2022-09-09T09:26:40;6.80;;;3.97;;
34236;SDS011;20501;45.956;13.632;2022-09-09T09:29:12;12.15;;;4.10;;
34236;SDS011;20501;45.956;13.632;2022-09-09T09:31:42;6.65;;;3.70;;
34236;SDS011;20501;45.956;13.632;2022-09-09T09:34:10;6.72;;;3.42;;
34236;SDS011;20501;45.956;13.632;2022-09-09T09:39:29;5.65;;;3.05;;
34236;SDS011;20501;45.956;13.632;2022-09-09T09:42:08;5.20;;;2.97;;
34236;SDS011;20501;45.956;13.632;2022-09-09T09:44:36;4.97;;;3.30;;
34236;SDS011;20501;45.956;13.632;2022-09-09T09:47:06;8.35;;;4.05;;
34236;SDS011;20501;45.956;13.632;2022-09-09T09:49:39;6.57;;;3.20;;
34236;SDS011;20501;45.956;13.632;2022-09-09T09:54:45;3.97;;;3.00;;
34236;SDS011;20501;45.956;13.632;2022-09-09T09:57:12;7.10;;;3.60;;
34236;SDS011;20501;45.956;13.632;2022-09-09T09:59:39;4.78;;;3.17;;
34236;SDS011;20501;45.956;13.632;2022-09-09T10:02:10;5.43;;;2.83;;
34236;SDS011;20501;45.956;13.632;2022-09-09T10:04:41;3.92;;;2.53;;
34236;SDS011;20501;45.956;13.632;2022-09-09T10:07:11;4.10;;;2.70;;
34236;SDS011;20501;45.956;13.632;2022-09-09T10:09:44;4.20;;;2.35;;
34236;SDS011;20501;45.956;13.632;2022-09-09T10:12:16;8.05;;;3.38;;
34236;SDS011;20501;45.956;13.632;2022-09-09T10:22:47;6.20;;;2.95;;
34236;SDS011;20501;45.956;13.632;2022-09-09T10:25:21;5.78;;;3.63;;
34236;SDS011;20501;45.956;13.632;2022-09-09T10:35:58;5.30;;;2.80;;
34236;SDS011;20501;45.956;13.632;2022-09-09T10:43:50;5.10;;;2.85;;
34236;SDS011;20501;45.956;13.632;2022-09-09T10:46:27;4.65;;;2.50;;
34236;SDS011;20501;45.956;13.632;2022-09-09T10:52:13;3.58;;;2.55;;
34236;SDS011;20501;45.956;13.632;2022-09-09T11:00:06;7.60;;;3.67;;
34236;SDS011;20501;45.956;13.632;2022-09-09T11:02:39;3.95;;;2.40;;
34236;SDS011;20501;45.956;13.632;2022-09-09T11:05:17;3.25;;;1.90;;
34236;SDS011;20501;45.956;13.632;2022-09-09T11:18:38;4.72;;;2.28;;
34236;SDS011;20501;45.956;13.632;2022-09-09T11:21:09;4.00;;;2.20;;
34236;SDS011;20501;45.956;13.632;2022-09-09T11:23:52;5.88;;;2.90;;
34236;SDS011;20501;45.956;13.632;2022-09-09T11:27:08;3.47;;;2.35;;
34236;SDS011;20501;45.956;13.632;2022-09-09T11:34:49;5.32;;;2.65;;
34236;SDS011;20501;45.956;13.632;2022-09-09T11:40:08;3.38;;;2.42;;
34236;SDS011;20501;45.956;13.632;2022-09-09T11:42:46;5.40;;;2.40;;
34236;SDS011;20501;45.956;13.632;2022-09-09T11:45:23;5.97;;;2.78;;
34236;SDS011;20501;45.956;13.632;2022-09-09T11:47:53;6.07;;;2.72;;
34236;SDS011;20501;45.956;13.632;2022-09-09T11:52:45;3.42;;;2.65;;
34236;SDS011;20501;45.956;13.632;2022-09-09T11:58:01;4.45;;;2.35;;
34236;SDS011;20501;45.956;13.632;2022-09-09T12:00:31;3.75;;;2.55;;
34236;SDS011;20501;45.956;13.632;2022-09-09T12:03:05;4.43;;;2.03;;
34236;SDS011;20501;45.956;13.632;2022-09-09T12:05:41;6.70;;;3.00;;
34236;SDS011;20501;45.956;13.632;2022-09-09T12:08:10;2.95;;;2.28;;
34236;SDS011;20501;45.956;13.632;2022-09-09T12:10:52;3.50;;;2.53;;
34236;SDS011;20501;45.956;13.632;2022-09-09T12:13:22;4.18;;;2.35;;
34236;SDS011;20501;45.956;13.632;2022-09-09T12:18:21;3.78;;;2.60;;
34236;SDS011;20501;45.956;13.632;2022-09-09T12:21:40;3.03;;;1.92;;
34236;SDS011;20501;45.956;13.632;2022-09-09T12:24:07;7.32;;;2.30;;
34236;SDS011;20501;45.956;13.632;2022-09-09T12:32:07;6.93;;;2.58;;
34236;SDS011;20501;45.956;13.632;2022-09-09T12:34:39;7.03;;;2.70;;
34236;SDS011;20501;45.956;13.632;2022-09-09T12:37:25;4.05;;;2.38;;
34236;SDS011;20501;45.956;13.632;2022-09-09T12:39:57;3.20;;;2.17;;
34236;SDS011;20501;45.956;13.632;2022-09-09T12:42:24;4.70;;;2.42;;
34236;SDS011;20501;45.956;13.632;2022-09-09T12:44:58;4.05;;;2.08;;
34236;SDS011;20501;45.956;13.632;2022-09-09T12:50:29;5.90;;;2.42;;
34236;SDS011;20501;45.956;13.632;2022-09-09T12:52:58;4.10;;;2.50;;
34236;SDS011;20501;45.956;13.632;2022-09-09T12:55:30;3.08;;;2.00;;
34236;SDS011;20501;45.956;13.632;2022-09-09T12:57:58;6.30;;;2.03;;
34236;SDS011;20501;45.956;13.632;2022-09-09T13:00:25;3.17;;;2.13;;
34236;SDS011;20501;45.956;13.632;2022-09-09T13:02:58;5.28;;;1.85;;
34236;SDS011;20501;45.956;13.632;2022-09-09T13:05:31;2.28;;;1.70;;
34236;SDS011;20501;45.956;13.632;2022-09-09T13:08:04;1.83;;;1.40;;
34236;SDS011;20501;45.956;13.632;2022-09-09T13:10:33;1.92;;;1.35;;
34236;SDS011;20501;45.956;13.632;2022-09-09T13:13:03;8.38;;;1.60;;
34236;SDS011;20501;45.956;13.632;2022-09-09T13:15:32;4.00;;;1.42;;
34236;SDS011;20501;45.956;13.632;2022-09-09T13:17:58;4.28;;;1.55;;
34236;SDS011;20501;45.956;13.632;2022-09-09T13:20:26;6.32;;;1.60;;
34236;SDS011;20501;45.956;13.632;2022-09-09T13:22:53;2.03;;;1.65;;
34236;SDS011;20501;45.956;13.632;2022-09-09T13:25:21;4.00;;;1.70;;
34236;SDS011;20501;45.956;13.632;2022-09-09T13:30:23;2.20;;;1.55;;
34236;SDS011;20501;45.956;13.632;2022-09-09T13:35:45;3.67;;;1.13;;
34236;SDS011;20501;45.956;13.632;2022-09-09T13:38:13;4.82;;;1.42;;
34236;SDS011;20501;45.956;13.632;2022-09-09T13:40:39;3.50;;;1.60;;
34236;SDS011;20501;45.956;13.632;2022-09-09T13:43:05;1.45;;;1.35;;
34236;SDS011;20501;45.956;13.632;2022-09-09T13:46:00;2.10;;;1.33;;
34236;SDS011;20501;45.956;13.632;2022-09-09T13:48:56;3.15;;;1.60;;
34236;SDS011;20501;45.956;13.632;2022-09-09T13:51:39;2.90;;;1.80;;
34236;SDS011;20501;45.956;13.632;2022-09-09T13:54:12;3.08;;;1.38;;
34236;SDS011;20501;45.956;13.632;2022-09-09T13:56:40;3.47;;;1.50;;
34236;SDS011;20501;45.956;13.632;2022-09-09T14:01:44;2.58;;;1.30;;
34236;SDS011;20501;45.956;13.632;2022-09-09T14:04:10;2.97;;;1.27;;
34236;SDS011;20501;45.956;13.632;2022-09-09T14:06:35;4.30;;;1.45;;
34236;SDS011;20501;45.956;13.632;2022-09-09T14:09:04;2.40;;;1.63;;
34236;SDS011;20501;45.956;13.632;2022-09-09T14:13:56;4.85;;;1.40;;
34236;SDS011;20501;45.956;13.632;2022-09-09T14:16:21;2.85;;;1.70;;
34236;SDS011;20501;45.956;13.632;2022-09-09T14:18:47;5.13;;;2.00;;
34236;SDS011;20501;45.956;13.632;2022-09-09T14:21:13;3.55;;;1.63;;
34236;SDS011;20501;45.956;13.632;2022-09-09T14:23:39;1.35;;;1.25;;
34236;SDS011;20501;45.956;13.632;2022-09-09T14:26:05;2.88;;;1.80;;
34236;SDS011;20501;45.956;13.632;2022-09-09T14:28:31;2.90;;;1.50;;
34236;SDS011;20501;45.956;13.632;2022-09-09T14:33:27;4.25;;;1.88;;
34236;SDS011;20501;45.956;13.632;2022-09-09T14:36:01;6.60;;;1.73;;
34236;SDS011;20501;45.956;13.632;2022-09-09T14:38:35;1.98;;;1.75;;
34236;SDS011;20501;45.956;13.632;2022-09-09T14:41:05;2.28;;;1.70;;
34236;SDS011;20501;45.956;13.632;2022-09-09T14:43:31;2.80;;;1.83;;
34236;SDS011;20501;45.956;13.632;2022-09-09T14:45:57;3.72;;;1.80;;
34236;SDS011;20501;45.956;13.632;2022-09-09T14:48:37;2.55;;;1.70;;
34236;SDS011;20501;45.956;13.632;2022-09-09T14:51:09;2.35;;;1.60;;
34236;SDS011;20501;45.956;13.632;2022-09-09T14:53:40;6.20;;;1.73;;
34236;SDS011;20501;45.956;13.632;2022-09-09T14:56:08;1.97;;;1.23;;
34236;SDS011;20501;45.956;13.632;2022-09-09T14:58:38;1.90;;;1.27;;
34236;SDS011;20501;45.956;13.632;2022-09-09T15:01:07;4.20;;;1.52;;
34236;SDS011;20501;45.956;13.632;2022-09-09T15:03:37;4.70;;;1.50;;
34236;SDS011;20501;45.956;13.632;2022-09-09T15:08:30;6.63;;;2.15;;
34236;SDS011;20501;45.956;13.632;2022-09-09T15:10:59;4.43;;;1.98;;
34236;SDS011;20501;45.956;13.632;2022-09-09T15:13:26;4.85;;;1.70;;
34236;SDS011;20501;45.956;13.632;2022-09-09T15:15:52;4.35;;;1.63;;
34236;SDS011;20501;45.956;13.632;2022-09-09T15:20:44;1.92;;;1.30;;
34236;SDS011;20501;45.956;13.632;2022-09-09T15:23:11;3.97;;;1.83;;
34236;SDS011;20501;45.956;13.632;2022-09-09T15:25:37;4.47;;;2.23;;
34236;SDS011;20501;45.956;13.632;2022-09-09T15:28:02;3.65;;;1.50;;
34236;SDS011;20501;45.956;13.632;2022-09-09T15:30:28;5.28;;;1.75;;
34236;SDS011;20501;45.956;13.632;2022-09-09T15:32:53;2.88;;;1.60;;
34236;SDS011;20501;45.956;13.632;2022-09-09T15:35:19;5.20;;;1.90;;
34236;SDS011;20501;45.956;13.632;2022-09-09T15:37:45;6.03;;;1.38;;
34236;SDS011;20501;45.956;13.632;2022-09-09T15:40:10;6.18;;;2.08;;
34236;SDS011;20501;45.956;13.632;2022-09-09T15:42:36;5.05;;;1.90;;
34236;SDS011;20501;45.956;13.632;2022-09-09T15:45:02;3.70;;;2.00;;
34236;SDS011;20501;45.956;13.632;2022-09-09T15:47:27;2.42;;;1.80;;
34236;SDS011;20501;45.956;13.632;2022-09-09T15:49:53;2.22;;;1.85;;
34236;SDS011;20501;45.956;13.632;2022-09-09T15:52:18;4.03;;;2.13;;
34236;SDS011;20501;45.956;13.632;2022-09-09T15:54:44;5.43;;;2.10;;
34236;SDS011;20501;45.956;13.632;2022-09-09T15:57:11;2.08;;;1.77;;
34236;SDS011;20501;45.956;13.632;2022-09-09T15:59:38;5.15;;;2.20;;
34236;SDS011;20501;45.956;13.632;2022-09-09T16:02:03;3.05;;;2.17;;
34236;SDS011;20501;45.956;13.632;2022-09-09T16:04:30;4.68;;;1.98;;
34236;SDS011;20501;45.956;13.632;2022-09-09T16:07:05;2.60;;;1.50;;
34236;SDS011;20501;45.956;13.632;2022-09-09T16:09:31;3.95;;;2.40;;
34236;SDS011;20501;45.956;13.632;2022-09-09T16:11:58;3.92;;;2.13;;
34236;SDS011;20501;45.956;13.632;2022-09-09T16:14:28;2.40;;;1.80;;
34236;SDS011;20501;45.956;13.632;2022-09-09T16:16:53;3.58;;;1.90;;
34236;SDS011;20501;45.956;13.632;2022-09-09T16:19:19;3.90;;;2.13;;
34236;SDS011;20501;45.956;13.632;2022-09-09T16:21:45;4.13;;;2.50;;
34236;SDS011;20501;45.956;13.632;2022-09-09T16:24:14;3.88;;;2.17;;
34236;SDS011;20501;45.956;13.632;2022-09-09T16:26:42;3.70;;;1.83;;
34236;SDS011;20501;45.956;13.632;2022-09-09T16:29:11;5.43;;;2.22;;
34236;SDS011;20501;45.956;13.632;2022-09-09T16:31:37;8.38;;;2.28;;
34236;SDS011;20501;45.956;13.632;2022-09-09T16:34:03;2.78;;;1.90;;
34236;SDS011;20501;45.956;13.632;2022-09-09T16:36:29;3.53;;;1.70;;
34236;SDS011;20501;45.956;13.632;2022-09-09T16:39:01;2.30;;;1.88;;
34236;SDS011;20501;45.956;13.632;2022-09-09T16:41:28;3.83;;;1.67;;
34236;SDS011;20501;45.956;13.632;2022-09-09T16:43:58;5.10;;;3.07;;
34236;SDS011;20501;45.956;13.632;2022-09-09T16:46:26;4.57;;;2.70;;
34236;SDS011;20501;45.956;13.632;2022-09-09T16:48:53;5.75;;;2.67;;
34236;SDS011;20501;45.956;13.632;2022-09-09T16:51:22;3.40;;;2.10;;
34236;SDS011;20501;45.956;13.632;2022-09-09T16:53:49;4.38;;;2.20;;
34236;SDS011;20501;45.956;13.632;2022-09-09T16:56:15;3.17;;;1.98;;
34236;SDS011;20501;45.956;13.632;2022-09-09T16:58:43;3.67;;;1.77;;
34236;SDS011;20501;45.956;13.632;2022-09-09T17:01:41;3.00;;;2.10;;
34236;SDS011;20501;45.956;13.632;2022-09-09T17:04:15;3.00;;;1.88;;
34236;SDS011;20501;45.956;13.632;2022-09-09T17:06:46;4.68;;;2.17;;
34236;SDS011;20501;45.956;13.632;2022-09-09T17:09:12;4.70;;;1.90;;
34236;SDS011;20501;45.956;13.632;2022-09-09T17:11:38;3.55;;;2.00;;
34236;SDS011;20501;45.956;13.632;2022-09-09T17:14:04;3.20;;;1.73;;
34236;SDS011;20501;45.956;13.632;2022-09-09T17:16:31;3.05;;;1.85;;
34236;SDS011;20501;45.956;13.632;2022-09-09T17:19:01;4.80;;;2.22;;
34236;SDS011;20501;45.956;13.632;2022-09-09T17:21:28;3.30;;;1.67;;
34236;SDS011;20501;45.956;13.632;2022-09-09T17:23:55;3.45;;;1.90;;
34236;SDS011;20501;45.956;13.632;2022-09-09T17:26:22;3.67;;;2.72;;
34236;SDS011;20501;45.956;13.632;2022-09-09T17:28:51;2.47;;;2.15;;
34236;SDS011;20501;45.956;13.632;2022-09-09T17:31:17;4.30;;;2.45;;
34236;SDS011;20501;45.956;13.632;2022-09-09T17:33:45;4.35;;;2.30;;
34236;SDS011;20501;45.956;13.632;2022-09-09T17:36:22;6.93;;;2.22;;
34236;SDS011;20501;45.956;13.632;2022-09-09T17:38:50;3.78;;;1.80;;
34236;SDS011;20501;45.956;13.632;2022-09-09T17:41:17;3.03;;;1.88;;
34236;SDS011;20501;45.956;13.632;2022-09-09T17:43:45;2.08;;;1.55;;
34236;SDS011;20501;45.956;13.632;2022-09-09T17:46:21;4.65;;;2.03;;